Olmito, Texas
Current Conditions -  °F | °C
As of 2:53 PM on Wednesday 17 Dec 2014 (Local Time) from KBRO Reporting Station
Scattered Clouds Scattered Clouds  
Wind Chill: 75°   Ceiling: Unl
Heat Index: 75°   Visibility: 10mi
Dew Point: 65°   Wind: 22mph
Humidity: 71%   Direction: 150°SSE
Pressure: 30"   Gusts: 26mph
Location:  26.02°N, 97.53°W
Report Text: KBRO 172053Z 15019G23KT 10SM FEW023 SCT030 24/18 A3000 RMK AO2 SLP156 T02390183 56033
Loading
Personal Weather Stations






























Interactive Weather Map New forecast layout! Learn more

10-Day Weather Forecast

Advertisements
Track Severe Weather on mobile